sensor_id;sensor_type;location;lat;lon;timestamp;P1;durP1;ratioP1;P2;durP2;ratioP2
27013;SDS011;14556;52.222;4.510;2023-07-29T00:02:17;0.90;;;0.70;;
27013;SDS011;14556;52.222;4.510;2023-07-29T00:04:44;0.70;;;0.67;;
27013;SDS011;14556;52.222;4.510;2023-07-29T00:07:10;1.13;;;0.67;;
27013;SDS011;14556;52.222;4.510;2023-07-29T00:09:37;1.53;;;0.70;;
27013;SDS011;14556;52.222;4.510;2023-07-29T00:12:04;1.20;;;0.70;;
27013;SDS011;14556;52.222;4.510;2023-07-29T00:14:31;1.40;;;0.67;;
27013;SDS011;14556;52.222;4.510;2023-07-29T00:16:58;2.33;;;0.70;;
27013;SDS011;14556;52.222;4.510;2023-07-29T00:19:24;0.73;;;0.60;;
27013;SDS011;14556;52.222;4.510;2023-07-29T00:21:51;1.00;;;0.90;;
27013;SDS011;14556;52.222;4.510;2023-07-29T00:24:17;1.23;;;0.80;;
27013;SDS011;14556;52.222;4.510;2023-07-29T00:26:44;1.37;;;0.60;;
27013;SDS011;14556;52.222;4.510;2023-07-29T00:29:11;1.13;;;0.77;;
27013;SDS011;14556;52.222;4.510;2023-07-29T00:31:38;3.00;;;0.83;;
27013;SDS011;14556;52.222;4.510;2023-07-29T00:34:06;1.40;;;0.77;;
27013;SDS011;14556;52.222;4.510;2023-07-29T00:36:34;2.90;;;0.97;;
27013;SDS011;14556;52.222;4.510;2023-07-29T00:39:01;2.17;;;0.60;;
27013;SDS011;14556;52.222;4.510;2023-07-29T00:41:29;1.00;;;0.70;;
27013;SDS011;14556;52.222;4.510;2023-07-29T00:43:56;2.90;;;0.50;;
27013;SDS011;14556;52.222;4.510;2023-07-29T00:46:23;1.43;;;0.90;;
27013;SDS011;14556;52.222;4.510;2023-07-29T00:48:51;0.77;;;0.70;;
27013;SDS011;14556;52.222;4.510;2023-07-29T00:51:17;3.80;;;1.10;;
27013;SDS011;14556;52.222;4.510;2023-07-29T00:53:44;1.10;;;0.80;;
27013;SDS011;14556;52.222;4.510;2023-07-29T00:56:11;1.27;;;0.50;;
27013;SDS011;14556;52.222;4.510;2023-07-29T00:58:40;3.00;;;1.10;;
27013;SDS011;14556;52.222;4.510;2023-07-29T01:01:07;2.23;;;1.10;;
27013;SDS011;14556;52.222;4.510;2023-07-29T01:03:34;1.13;;;0.70;;
27013;SDS011;14556;52.222;4.510;2023-07-29T01:06:07;1.40;;;0.73;;
27013;SDS011;14556;52.222;4.510;2023-07-29T01:08:43;3.33;;;1.07;;
27013;SDS011;14556;52.222;4.510;2023-07-29T01:13:44;2.03;;;1.17;;
27013;SDS011;14556;52.222;4.510;2023-07-29T01:18:43;2.87;;;0.87;;
27013;SDS011;14556;52.222;4.510;2023-07-29T01:21:14;3.40;;;1.00;;
27013;SDS011;14556;52.222;4.510;2023-07-29T01:23:43;3.30;;;1.00;;
27013;SDS011;14556;52.222;4.510;2023-07-29T01:26:10;2.50;;;0.90;;
27013;SDS011;14556;52.222;4.510;2023-07-29T01:28:36;3.30;;;0.90;;
27013;SDS011;14556;52.222;4.510;2023-07-29T01:31:12;2.80;;;1.13;;
27013;SDS011;14556;52.222;4.510;2023-07-29T01:33:44;3.70;;;1.20;;
27013;SDS011;14556;52.222;4.510;2023-07-29T01:36:21;1.33;;;1.00;;
27013;SDS011;14556;52.222;4.510;2023-07-29T01:38:51;2.00;;;1.20;;
27013;SDS011;14556;52.222;4.510;2023-07-29T01:41:20;1.53;;;0.90;;
27013;SDS011;14556;52.222;4.510;2023-07-29T01:43:50;1.47;;;0.93;;
27013;SDS011;14556;52.222;4.510;2023-07-29T01:46:18;1.37;;;0.90;;
27013;SDS011;14556;52.222;4.510;2023-07-29T01:48:45;3.60;;;0.80;;
27013;SDS011;14556;52.222;4.510;2023-07-29T01:51:11;2.23;;;0.83;;
27013;SDS011;14556;52.222;4.510;2023-07-29T01:53:39;1.90;;;0.80;;
27013;SDS011;14556;52.222;4.510;2023-07-29T01:56:05;1.30;;;1.00;;
27013;SDS011;14556;52.222;4.510;2023-07-29T01:58:33;1.47;;;0.90;;
27013;SDS011;14556;52.222;4.510;2023-07-29T02:01:02;5.03;;;1.30;;
27013;SDS011;14556;52.222;4.510;2023-07-29T02:03:29;2.73;;;1.30;;
27013;SDS011;14556;52.222;4.510;2023-07-29T02:05:55;6.67;;;1.20;;
27013;SDS011;14556;52.222;4.510;2023-07-29T02:08:22;1.83;;;1.10;;
27013;SDS011;14556;52.222;4.510;2023-07-29T02:10:49;1.70;;;1.10;;
27013;SDS011;14556;52.222;4.510;2023-07-29T02:13:17;2.10;;;0.83;;
27013;SDS011;14556;52.222;4.510;2023-07-29T02:15:44;1.57;;;1.00;;
27013;SDS011;14556;52.222;4.510;2023-07-29T02:18:11;2.57;;;1.03;;
27013;SDS011;14556;52.222;4.510;2023-07-29T02:20:45;1.73;;;1.03;;
27013;SDS011;14556;52.222;4.510;2023-07-29T02:23:16;2.00;;;1.37;;
27013;SDS011;14556;52.222;4.510;2023-07-29T02:25:45;2.73;;;1.30;;
27013;SDS011;14556;52.222;4.510;2023-07-29T02:28:12;1.87;;;1.00;;
27013;SDS011;14556;52.222;4.510;2023-07-29T02:30:40;1.30;;;1.07;;
27013;SDS011;14556;52.222;4.510;2023-07-29T02:33:12;2.20;;;0.90;;
27013;SDS011;14556;52.222;4.510;2023-07-29T02:35:40;1.37;;;1.03;;
27013;SDS011;14556;52.222;4.510;2023-07-29T02:38:07;3.33;;;1.17;;
27013;SDS011;14556;52.222;4.510;2023-07-29T02:40:33;4.17;;;1.30;;
27013;SDS011;14556;52.222;4.510;2023-07-29T02:43:00;1.20;;;0.90;;
27013;SDS011;14556;52.222;4.510;2023-07-29T02:45:28;2.47;;;1.00;;
27013;SDS011;14556;52.222;4.510;2023-07-29T02:47:55;4.40;;;1.40;;
27013;SDS011;14556;52.222;4.510;2023-07-29T02:50:21;2.47;;;1.30;;
27013;SDS011;14556;52.222;4.510;2023-07-29T02:52:49;3.00;;;1.00;;
27013;SDS011;14556;52.222;4.510;2023-07-29T02:55:18;1.40;;;0.80;;
27013;SDS011;14556;52.222;4.510;2023-07-29T02:57:48;2.47;;;1.00;;
27013;SDS011;14556;52.222;4.510;2023-07-29T03:00:17;1.43;;;1.00;;
27013;SDS011;14556;52.222;4.510;2023-07-29T03:02:44;1.77;;;1.00;;
27013;SDS011;14556;52.222;4.510;2023-07-29T03:05:10;2.87;;;1.10;;
27013;SDS011;14556;52.222;4.510;2023-07-29T03:07:39;1.93;;;1.00;;
27013;SDS011;14556;52.222;4.510;2023-07-29T03:10:05;3.60;;;1.50;;
27013;SDS011;14556;52.222;4.510;2023-07-29T03:12:32;4.67;;;1.20;;
27013;SDS011;14556;52.222;4.510;2023-07-29T03:15:01;2.73;;;1.10;;
27013;SDS011;14556;52.222;4.510;2023-07-29T03:17:28;2.73;;;1.10;;
27013;SDS011;14556;52.222;4.510;2023-07-29T03:19:57;2.57;;;1.10;;
27013;SDS011;14556;52.222;4.510;2023-07-29T03:22:24;3.07;;;0.93;;
27013;SDS011;14556;52.222;4.510;2023-07-29T03:24:50;2.27;;;1.07;;
27013;SDS011;14556;52.222;4.510;2023-07-29T03:27:17;1.50;;;0.93;;
27013;SDS011;14556;52.222;4.510;2023-07-29T03:29:45;1.30;;;0.80;;
27013;SDS011;14556;52.222;4.510;2023-07-29T03:32:11;1.60;;;0.90;;
27013;SDS011;14556;52.222;4.510;2023-07-29T03:34:38;5.23;;;1.40;;
27013;SDS011;14556;52.222;4.510;2023-07-29T03:37:06;2.57;;;1.07;;
27013;SDS011;14556;52.222;4.510;2023-07-29T03:39:33;3.13;;;1.20;;
27013;SDS011;14556;52.222;4.510;2023-07-29T03:42:00;2.13;;;1.00;;
27013;SDS011;14556;52.222;4.510;2023-07-29T03:44:28;3.23;;;1.33;;
27013;SDS011;14556;52.222;4.510;2023-07-29T03:46:54;1.40;;;0.93;;
27013;SDS011;14556;52.222;4.510;2023-07-29T03:49:21;7.47;;;1.37;;
27013;SDS011;14556;52.222;4.510;2023-07-29T03:51:48;1.33;;;0.80;;
27013;SDS011;14556;52.222;4.510;2023-07-29T03:54:15;2.10;;;0.87;;
27013;SDS011;14556;52.222;4.510;2023-07-29T03:56:41;2.27;;;1.20;;
27013;SDS011;14556;52.222;4.510;2023-07-29T03:59:07;2.00;;;1.10;;
27013;SDS011;14556;52.222;4.510;2023-07-29T04:01:35;3.23;;;1.37;;
27013;SDS011;14556;52.222;4.510;2023-07-29T04:04:02;3.47;;;1.20;;
27013;SDS011;14556;52.222;4.510;2023-07-29T04:06:29;2.03;;;1.00;;
27013;SDS011;14556;52.222;4.510;2023-07-29T04:08:55;2.17;;;0.97;;
27013;SDS011;14556;52.222;4.510;2023-07-29T04:11:23;2.63;;;1.47;;
27013;SDS011;14556;52.222;4.510;2023-07-29T04:13:50;4.03;;;1.00;;
27013;SDS011;14556;52.222;4.510;2023-07-29T04:16:17;3.13;;;1.20;;
27013;SDS011;14556;52.222;4.510;2023-07-29T04:18:44;2.53;;;1.10;;
27013;SDS011;14556;52.222;4.510;2023-07-29T04:21:10;2.57;;;1.03;;
27013;SDS011;14556;52.222;4.510;2023-07-29T04:23:37;2.20;;;1.20;;
27013;SDS011;14556;52.222;4.510;2023-07-29T04:26:05;1.83;;;0.90;;
27013;SDS011;14556;52.222;4.510;2023-07-29T04:28:31;1.20;;;0.90;;
27013;SDS011;14556;52.222;4.510;2023-07-29T04:31:00;3.00;;;1.23;;
27013;SDS011;14556;52.222;4.510;2023-07-29T04:33:28;2.50;;;1.10;;
27013;SDS011;14556;52.222;4.510;2023-07-29T04:36:00;2.23;;;1.13;;
27013;SDS011;14556;52.222;4.510;2023-07-29T04:38:29;3.23;;;1.10;;
27013;SDS011;14556;52.222;4.510;2023-07-29T04:41:00;2.97;;;1.07;;
27013;SDS011;14556;52.222;4.510;2023-07-29T04:43:29;2.90;;;1.20;;
27013;SDS011;14556;52.222;4.510;2023-07-29T04:45:58;1.67;;;1.03;;
27013;SDS011;14556;52.222;4.510;2023-07-29T04:48:25;2.43;;;0.97;;
27013;SDS011;14556;52.222;4.510;2023-07-29T04:50:51;3.43;;;1.13;;
27013;SDS011;14556;52.222;4.510;2023-07-29T04:53:18;1.47;;;0.97;;
27013;SDS011;14556;52.222;4.510;2023-07-29T04:55:45;3.63;;;0.90;;
27013;SDS011;14556;52.222;4.510;2023-07-29T04:58:11;2.93;;;1.30;;
27013;SDS011;14556;52.222;4.510;2023-07-29T05:00:38;3.97;;;1.37;;
27013;SDS011;14556;52.222;4.510;2023-07-29T05:03:05;2.07;;;1.00;;
27013;SDS011;14556;52.222;4.510;2023-07-29T05:05:32;2.40;;;0.80;;
27013;SDS011;14556;52.222;4.510;2023-07-29T05:08:00;1.37;;;1.07;;
27013;SDS011;14556;52.222;4.510;2023-07-29T05:10:28;4.13;;;1.50;;
27013;SDS011;14556;52.222;4.510;2023-07-29T05:12:55;1.60;;;0.90;;
27013;SDS011;14556;52.222;4.510;2023-07-29T05:15:22;1.80;;;1.10;;
27013;SDS011;14556;52.222;4.510;2023-07-29T05:17:48;2.67;;;1.23;;
27013;SDS011;14556;52.222;4.510;2023-07-29T05:20:16;4.70;;;1.50;;
27013;SDS011;14556;52.222;4.510;2023-07-29T05:22:43;2.33;;;1.10;;
27013;SDS011;14556;52.222;4.510;2023-07-29T05:25:10;3.47;;;1.47;;
27013;SDS011;14556;52.222;4.510;2023-07-29T05:27:36;2.23;;;1.03;;
27013;SDS011;14556;52.222;4.510;2023-07-29T05:30:03;3.37;;;1.10;;
27013;SDS011;14556;52.222;4.510;2023-07-29T05:32:30;3.43;;;1.30;;
27013;SDS011;14556;52.222;4.510;2023-07-29T05:34:57;3.87;;;1.30;;
27013;SDS011;14556;52.222;4.510;2023-07-29T05:37:23;1.43;;;0.87;;
27013;SDS011;14556;52.222;4.510;2023-07-29T05:39:51;2.30;;;1.00;;
27013;SDS011;14556;52.222;4.510;2023-07-29T05:42:18;3.93;;;0.90;;
27013;SDS011;14556;52.222;4.510;2023-07-29T05:44:45;2.23;;;1.10;;
27013;SDS011;14556;52.222;4.510;2023-07-29T05:47:12;4.23;;;1.10;;
27013;SDS011;14556;52.222;4.510;2023-07-29T05:49:38;3.40;;;1.10;;
27013;SDS011;14556;52.222;4.510;2023-07-29T05:52:05;3.80;;;1.20;;
27013;SDS011;14556;52.222;4.510;2023-07-29T05:54:32;3.23;;;0.93;;
27013;SDS011;14556;52.222;4.510;2023-07-29T05:56:58;2.03;;;0.70;;
27013;SDS011;14556;52.222;4.510;2023-07-29T05:59:25;2.60;;;0.73;;
27013;SDS011;14556;52.222;4.510;2023-07-29T06:01:59;3.17;;;0.93;;
27013;SDS011;14556;52.222;4.510;2023-07-29T06:04:26;2.23;;;1.00;;
27013;SDS011;14556;52.222;4.510;2023-07-29T06:06:52;2.50;;;0.87;;
27013;SDS011;14556;52.222;4.510;2023-07-29T06:09:24;3.80;;;0.90;;
27013;SDS011;14556;52.222;4.510;2023-07-29T06:11:51;2.67;;;1.10;;
27013;SDS011;14556;52.222;4.510;2023-07-29T06:14:21;1.90;;;0.70;;
27013;SDS011;14556;52.222;4.510;2023-07-29T06:16:49;3.97;;;0.90;;
27013;SDS011;14556;52.222;4.510;2023-07-29T06:19:15;1.80;;;1.10;;
27013;SDS011;14556;52.222;4.510;2023-07-29T06:21:45;2.70;;;0.73;;
27013;SDS011;14556;52.222;4.510;2023-07-29T06:24:13;2.23;;;0.80;;
27013;SDS011;14556;52.222;4.510;2023-07-29T06:26:39;2.03;;;1.00;;
27013;SDS011;14556;52.222;4.510;2023-07-29T06:29:07;5.20;;;0.90;;
27013;SDS011;14556;52.222;4.510;2023-07-29T06:31:33;3.23;;;1.27;;
27013;SDS011;14556;52.222;4.510;2023-07-29T06:34:02;7.20;;;1.57;;
27013;SDS011;14556;52.222;4.510;2023-07-29T06:36:30;1.67;;;0.87;;
27013;SDS011;14556;52.222;4.510;2023-07-29T06:38:56;3.13;;;0.70;;
27013;SDS011;14556;52.222;4.510;2023-07-29T06:41:24;2.23;;;0.93;;
27013;SDS011;14556;52.222;4.510;2023-07-29T06:43:51;1.10;;;0.70;;
27013;SDS011;14556;52.222;4.510;2023-07-29T06:46:17;1.13;;;0.80;;
27013;SDS011;14556;52.222;4.510;2023-07-29T06:48:44;3.37;;;1.03;;
27013;SDS011;14556;52.222;4.510;2023-07-29T06:51:11;2.47;;;0.90;;
27013;SDS011;14556;52.222;4.510;2023-07-29T06:53:38;1.57;;;0.80;;
27013;SDS011;14556;52.222;4.510;2023-07-29T06:56:05;1.87;;;0.90;;
27013;SDS011;14556;52.222;4.510;2023-07-29T06:58:34;4.90;;;1.03;;
27013;SDS011;14556;52.222;4.510;2023-07-29T07:01:01;2.30;;;1.03;;
27013;SDS011;14556;52.222;4.510;2023-07-29T07:03:32;1.73;;;0.93;;
27013;SDS011;14556;52.222;4.510;2023-07-29T07:06:00;2.83;;;1.10;;
27013;SDS011;14556;52.222;4.510;2023-07-29T07:08:30;1.57;;;0.93;;
27013;SDS011;14556;52.222;4.510;2023-07-29T07:10:57;3.03;;;0.97;;
27013;SDS011;14556;52.222;4.510;2023-07-29T07:13:24;2.30;;;0.97;;
27013;SDS011;14556;52.222;4.510;2023-07-29T07:15:54;3.70;;;0.90;;
27013;SDS011;14556;52.222;4.510;2023-07-29T07:18:21;1.67;;;1.07;;
27013;SDS011;14556;52.222;4.510;2023-07-29T07:20:49;1.83;;;0.97;;
27013;SDS011;14556;52.222;4.510;2023-07-29T07:23:17;3.80;;;1.00;;
27013;SDS011;14556;52.222;4.510;2023-07-29T07:25:45;2.93;;;1.00;;
27013;SDS011;14556;52.222;4.510;2023-07-29T07:28:12;2.10;;;1.20;;
27013;SDS011;14556;52.222;4.510;2023-07-29T07:30:39;1.27;;;0.80;;
27013;SDS011;14556;52.222;4.510;2023-07-29T07:33:07;1.90;;;0.73;;
27013;SDS011;14556;52.222;4.510;2023-07-29T07:35:34;3.70;;;1.40;;
27013;SDS011;14556;52.222;4.510;2023-07-29T07:38:00;3.27;;;0.93;;
27013;SDS011;14556;52.222;4.510;2023-07-29T07:40:30;1.63;;;0.97;;
27013;SDS011;14556;52.222;4.510;2023-07-29T07:42:58;1.93;;;1.33;;
27013;SDS011;14556;52.222;4.510;2023-07-29T07:45:25;2.30;;;1.00;;
27013;SDS011;14556;52.222;4.510;2023-07-29T07:47:52;3.07;;;1.40;;
27013;SDS011;14556;52.222;4.510;2023-07-29T07:50:20;2.13;;;1.30;;
27013;SDS011;14556;52.222;4.510;2023-07-29T07:52:46;4.47;;;1.13;;
27013;SDS011;14556;52.222;4.510;2023-07-29T07:55:13;2.63;;;1.20;;
27013;SDS011;14556;52.222;4.510;2023-07-29T07:57:42;2.30;;;1.17;;
27013;SDS011;14556;52.222;4.510;2023-07-29T08:00:09;3.43;;;1.23;;
27013;SDS011;14556;52.222;4.510;2023-07-29T08:02:36;1.63;;;1.00;;
27013;SDS011;14556;52.222;4.510;2023-07-29T08:05:03;2.80;;;1.17;;
27013;SDS011;14556;52.222;4.510;2023-07-29T08:07:30;2.63;;;1.20;;
27013;SDS011;14556;52.222;4.510;2023-07-29T08:09:57;4.53;;;1.60;;
27013;SDS011;14556;52.222;4.510;2023-07-29T08:12:23;2.97;;;1.37;;
27013;SDS011;14556;52.222;4.510;2023-07-29T08:14:50;3.93;;;1.20;;
27013;SDS011;14556;52.222;4.510;2023-07-29T08:17:17;2.53;;;0.93;;
27013;SDS011;14556;52.222;4.510;2023-07-29T08:19:43;4.93;;;1.50;;
27013;SDS011;14556;52.222;4.510;2023-07-29T08:22:10;2.13;;;1.10;;
27013;SDS011;14556;52.222;4.510;2023-07-29T08:24:40;3.30;;;1.23;;
27013;SDS011;14556;52.222;4.510;2023-07-29T08:27:07;2.47;;;1.30;;
27013;SDS011;14556;52.222;4.510;2023-07-29T08:29:36;4.37;;;1.20;;
27013;SDS011;14556;52.222;4.510;2023-07-29T08:32:02;3.20;;;1.50;;
27013;SDS011;14556;52.222;4.510;2023-07-29T08:34:29;5.43;;;1.60;;
27013;SDS011;14556;52.222;4.510;2023-07-29T08:36:57;1.73;;;1.40;;
27013;SDS011;14556;52.222;4.510;2023-07-29T08:39:23;4.10;;;1.10;;
27013;SDS011;14556;52.222;4.510;2023-07-29T08:44:35;1.30;;;1.00;;
27013;SDS011;14556;52.222;4.510;2023-07-29T08:47:08;2.60;;;0.90;;
27013;SDS011;14556;52.222;4.510;2023-07-29T08:49:36;1.80;;;1.20;;
27013;SDS011;14556;52.222;4.510;2023-07-29T08:52:03;1.53;;;1.03;;
27013;SDS011;14556;52.222;4.510;2023-07-29T08:54:31;3.37;;;1.10;;
27013;SDS011;14556;52.222;4.510;2023-07-29T08:56:57;2.63;;;1.10;;
27013;SDS011;14556;52.222;4.510;2023-07-29T08:59:25;1.43;;;0.97;;
27013;SDS011;14556;52.222;4.510;2023-07-29T09:01:54;3.80;;;1.00;;
27013;SDS011;14556;52.222;4.510;2023-07-29T09:04:24;3.87;;;1.30;;
27013;SDS011;14556;52.222;4.510;2023-07-29T09:06:51;2.73;;;1.20;;
27013;SDS011;14556;52.222;4.510;2023-07-29T09:09:20;5.30;;;1.17;;
27013;SDS011;14556;52.222;4.510;2023-07-29T09:11:47;4.13;;;1.57;;
27013;SDS011;14556;52.222;4.510;2023-07-29T09:14:15;5.43;;;1.17;;
27013;SDS011;14556;52.222;4.510;2023-07-29T09:16:42;3.60;;;1.30;;
27013;SDS011;14556;52.222;4.510;2023-07-29T09:19:10;3.80;;;1.13;;
27013;SDS011;14556;52.222;4.510;2023-07-29T09:21:39;2.50;;;1.10;;
27013;SDS011;14556;52.222;4.510;2023-07-29T09:24:10;3.03;;;1.23;;
27013;SDS011;14556;52.222;4.510;2023-07-29T09:26:39;1.80;;;1.70;;
27013;SDS011;14556;52.222;4.510;2023-07-29T09:29:14;1.83;;;1.30;;
27013;SDS011;14556;52.222;4.510;2023-07-29T09:31:41;4.50;;;1.20;;
27013;SDS011;14556;52.222;4.510;2023-07-29T09:34:07;3.10;;;1.37;;
27013;SDS011;14556;52.222;4.510;2023-07-29T09:36:34;1.80;;;1.27;;
27013;SDS011;14556;52.222;4.510;2023-07-29T09:39:02;4.47;;;1.20;;
27013;SDS011;14556;52.222;4.510;2023-07-29T09:41:30;2.97;;;1.50;;
27013;SDS011;14556;52.222;4.510;2023-07-29T09:44:01;3.27;;;1.23;;
27013;SDS011;14556;52.222;4.510;2023-07-29T09:46:36;2.37;;;1.10;;
27013;SDS011;14556;52.222;4.510;2023-07-29T09:49:07;4.10;;;1.57;;
27013;SDS011;14556;52.222;4.510;2023-07-29T09:51:38;3.80;;;1.60;;
27013;SDS011;14556;52.222;4.510;2023-07-29T09:54:06;3.57;;;1.23;;
27013;SDS011;14556;52.222;4.510;2023-07-29T09:56:32;4.33;;;1.43;;
27013;SDS011;14556;52.222;4.510;2023-07-29T09:59:02;2.03;;;1.17;;
27013;SDS011;14556;52.222;4.510;2023-07-29T10:01:31;2.97;;;1.10;;
27013;SDS011;14556;52.222;4.510;2023-07-29T10:03:59;2.67;;;0.97;;
27013;SDS011;14556;52.222;4.510;2023-07-29T10:06:30;3.30;;;1.40;;
27013;SDS011;14556;52.222;4.510;2023-07-29T10:08:56;3.07;;;1.03;;
27013;SDS011;14556;52.222;4.510;2023-07-29T10:11:23;4.17;;;1.57;;
27013;SDS011;14556;52.222;4.510;2023-07-29T10:13:51;2.30;;;1.00;;
27013;SDS011;14556;52.222;4.510;2023-07-29T10:16:34;2.40;;;1.10;;
27013;SDS011;14556;52.222;4.510;2023-07-29T10:19:04;2.40;;;0.90;;
27013;SDS011;14556;52.222;4.510;2023-07-29T10:21:33;4.23;;;1.47;;
27013;SDS011;14556;52.222;4.510;2023-07-29T10:24:02;3.77;;;1.30;;
27013;SDS011;14556;52.222;4.510;2023-07-29T10:26:32;2.17;;;1.10;;
27013;SDS011;14556;52.222;4.510;2023-07-29T10:29:01;3.17;;;1.20;;
27013;SDS011;14556;52.222;4.510;2023-07-29T10:31:32;2.83;;;1.43;;
27013;SDS011;14556;52.222;4.510;2023-07-29T10:34:00;3.00;;;1.40;;
27013;SDS011;14556;52.222;4.510;2023-07-29T10:36:27;3.67;;;1.37;;
27013;SDS011;14556;52.222;4.510;2023-07-29T10:38:55;2.63;;;1.30;;
27013;SDS011;14556;52.222;4.510;2023-07-29T10:41:21;1.50;;;1.10;;
27013;SDS011;14556;52.222;4.510;2023-07-29T10:43:49;2.60;;;1.57;;
27013;SDS011;14556;52.222;4.510;2023-07-29T10:46:21;2.73;;;1.20;;
27013;SDS011;14556;52.222;4.510;2023-07-29T10:48:53;2.83;;;0.97;;
27013;SDS011;14556;52.222;4.510;2023-07-29T10:51:28;4.87;;;1.00;;
27013;SDS011;14556;52.222;4.510;2023-07-29T10:54:12;2.73;;;1.17;;
27013;SDS011;14556;52.222;4.510;2023-07-29T10:56:41;4.07;;;0.73;;
27013;SDS011;14556;52.222;4.510;2023-07-29T11:01:39;2.90;;;1.60;;
27013;SDS011;14556;52.222;4.510;2023-07-29T11:07:35;1.00;;;0.90;;
27013;SDS011;14556;52.222;4.510;2023-07-29T11:20:12;2.20;;;0.50;;
27013;SDS011;14556;52.222;4.510;2023-07-29T11:22:41;1.60;;;0.43;;
27013;SDS011;14556;52.222;4.510;2023-07-29T11:25:09;2.30;;;0.60;;
27013;SDS011;14556;52.222;4.510;2023-07-29T11:27:38;2.83;;;0.47;;
27013;SDS011;14556;52.222;4.510;2023-07-29T11:30:05;1.03;;;0.40;;
27013;SDS011;14556;52.222;4.510;2023-07-29T11:32:36;0.80;;;0.37;;
27013;SDS011;14556;52.222;4.510;2023-07-29T11:35:05;1.80;;;0.63;;
27013;SDS011;14556;52.222;4.510;2023-07-29T11:37:39;1.40;;;0.60;;
27013;SDS011;14556;52.222;4.510;2023-07-29T11:40:06;0.70;;;0.50;;
27013;SDS011;14556;52.222;4.510;2023-07-29T11:42:34;0.27;;;0.20;;
27013;SDS011;14556;52.222;4.510;2023-07-29T11:45:03;0.60;;;0.40;;
27013;SDS011;14556;52.222;4.510;2023-07-29T11:47:35;0.17;;;0.17;;
27013;SDS011;14556;52.222;4.510;2023-07-29T11:50:06;0.70;;;0.33;;
27013;SDS011;14556;52.222;4.510;2023-07-29T11:52:35;0.47;;;0.20;;
27013;SDS011;14556;52.222;4.510;2023-07-29T11:55:03;2.40;;;0.50;;
27013;SDS011;14556;52.222;4.510;2023-07-29T11:57:34;0.33;;;0.30;;
27013;SDS011;14556;52.222;4.510;2023-07-29T12:00:03;0.83;;;0.33;;
27013;SDS011;14556;52.222;4.510;2023-07-29T12:02:36;2.00;;;0.40;;
27013;SDS011;14556;52.222;4.510;2023-07-29T12:05:04;0.43;;;0.40;;
27013;SDS011;14556;52.222;4.510;2023-07-29T12:07:31;0.20;;;0.20;;
27013;SDS011;14556;52.222;4.510;2023-07-29T12:09:59;1.97;;;0.53;;
27013;SDS011;14556;52.222;4.510;2023-07-29T12:12:26;1.07;;;0.60;;
27013;SDS011;14556;52.222;4.510;2023-07-29T12:14:54;1.10;;;0.43;;
27013;SDS011;14556;52.222;4.510;2023-07-29T12:17:21;1.77;;;0.50;;
27013;SDS011;14556;52.222;4.510;2023-07-29T12:19:48;1.40;;;0.70;;
27013;SDS011;14556;52.222;4.510;2023-07-29T12:22:19;0.63;;;0.50;;
27013;SDS011;14556;52.222;4.510;2023-07-29T12:24:48;1.57;;;0.53;;
27013;SDS011;14556;52.222;4.510;2023-07-29T12:27:17;1.57;;;0.60;;
27013;SDS011;14556;52.222;4.510;2023-07-29T12:29:44;1.17;;;0.60;;
27013;SDS011;14556;52.222;4.510;2023-07-29T12:32:12;1.63;;;0.70;;
27013;SDS011;14556;52.222;4.510;2023-07-29T12:34:40;3.20;;;0.70;;
27013;SDS011;14556;52.222;4.510;2023-07-29T12:37:06;1.80;;;0.60;;
27013;SDS011;14556;52.222;4.510;2023-07-29T12:39:34;2.53;;;0.90;;
27013;SDS011;14556;52.222;4.510;2023-07-29T12:42:06;2.03;;;0.80;;
27013;SDS011;14556;52.222;4.510;2023-07-29T12:44:33;2.07;;;0.70;;
27013;SDS011;14556;52.222;4.510;2023-07-29T12:47:02;1.10;;;0.60;;
27013;SDS011;14556;52.222;4.510;2023-07-29T12:49:30;1.60;;;0.77;;
27013;SDS011;14556;52.222;4.510;2023-07-29T12:51:58;0.83;;;0.80;;
27013;SDS011;14556;52.222;4.510;2023-07-29T12:54:25;2.17;;;0.70;;
27013;SDS011;14556;52.222;4.510;2023-07-29T12:56:52;1.03;;;0.60;;
27013;SDS011;14556;52.222;4.510;2023-07-29T12:59:20;1.90;;;0.67;;
27013;SDS011;14556;52.222;4.510;2023-07-29T13:01:47;5.33;;;0.73;;
27013;SDS011;14556;52.222;4.510;2023-07-29T13:04:14;1.90;;;0.73;;
27013;SDS011;14556;52.222;4.510;2023-07-29T13:06:41;2.10;;;0.60;;
27013;SDS011;14556;52.222;4.510;2023-07-29T13:09:07;1.73;;;0.50;;
27013;SDS011;14556;52.222;4.510;2023-07-29T13:11:34;0.90;;;0.70;;
27013;SDS011;14556;52.222;4.510;2023-07-29T13:14:01;2.30;;;0.70;;
27013;SDS011;14556;52.222;4.510;2023-07-29T13:16:28;1.23;;;0.60;;
27013;SDS011;14556;52.222;4.510;2023-07-29T13:18:55;2.93;;;1.10;;
27013;SDS011;14556;52.222;4.510;2023-07-29T13:21:22;1.07;;;0.73;;
27013;SDS011;14556;52.222;4.510;2023-07-29T13:23:49;1.67;;;0.80;;
27013;SDS011;14556;52.222;4.510;2023-07-29T13:26:16;1.90;;;0.87;;
27013;SDS011;14556;52.222;4.510;2023-07-29T13:28:42;1.90;;;0.90;;
27013;SDS011;14556;52.222;4.510;2023-07-29T13:31:09;2.73;;;0.97;;
27013;SDS011;14556;52.222;4.510;2023-07-29T13:33:35;1.13;;;0.77;;
27013;SDS011;14556;52.222;4.510;2023-07-29T13:36:03;1.60;;;0.87;;
27013;SDS011;14556;52.222;4.510;2023-07-29T13:38:29;1.97;;;0.93;;
27013;SDS011;14556;52.222;4.510;2023-07-29T13:40:59;1.33;;;0.80;;
27013;SDS011;14556;52.222;4.510;2023-07-29T13:43:25;1.87;;;1.00;;
27013;SDS011;14556;52.222;4.510;2023-07-29T13:45:52;2.00;;;1.00;;
27013;SDS011;14556;52.222;4.510;2023-07-29T13:48:19;1.53;;;0.60;;
27013;SDS011;14556;52.222;4.510;2023-07-29T13:50:47;1.47;;;1.00;;
27013;SDS011;14556;52.222;4.510;2023-07-29T13:53:13;2.43;;;0.80;;
27013;SDS011;14556;52.222;4.510;2023-07-29T13:55:40;2.63;;;0.90;;
27013;SDS011;14556;52.222;4.510;2023-07-29T13:58:07;2.07;;;1.07;;
27013;SDS011;14556;52.222;4.510;2023-07-29T14:00:36;2.73;;;1.03;;
27013;SDS011;14556;52.222;4.510;2023-07-29T14:03:02;1.53;;;0.77;;
27013;SDS011;14556;52.222;4.510;2023-07-29T14:05:29;2.13;;;0.90;;
27013;SDS011;14556;52.222;4.510;2023-07-29T14:07:56;3.00;;;1.13;;
27013;SDS011;14556;52.222;4.510;2023-07-29T14:10:24;1.63;;;0.97;;
27013;SDS011;14556;52.222;4.510;2023-07-29T14:12:51;2.50;;;0.90;;
27013;SDS011;14556;52.222;4.510;2023-07-29T14:15:17;1.03;;;0.70;;
27013;SDS011;14556;52.222;4.510;2023-07-29T14:17:44;2.33;;;0.90;;
27013;SDS011;14556;52.222;4.510;2023-07-29T14:20:11;2.37;;;1.20;;
27013;SDS011;14556;52.222;4.510;2023-07-29T14:22:39;1.23;;;0.93;;
27013;SDS011;14556;52.222;4.510;2023-07-29T14:25:06;3.27;;;1.20;;
27013;SDS011;14556;52.222;4.510;2023-07-29T14:27:34;3.27;;;0.93;;
27013;SDS011;14556;52.222;4.510;2023-07-29T14:30:01;3.50;;;1.30;;
27013;SDS011;14556;52.222;4.510;2023-07-29T14:32:29;2.17;;;1.33;;
27013;SDS011;14556;52.222;4.510;2023-07-29T14:34:56;2.27;;;1.00;;
27013;SDS011;14556;52.222;4.510;2023-07-29T14:37:23;2.67;;;1.30;;
27013;SDS011;14556;52.222;4.510;2023-07-29T14:39:49;2.90;;;1.40;;
27013;SDS011;14556;52.222;4.510;2023-07-29T14:42:16;3.07;;;1.00;;
27013;SDS011;14556;52.222;4.510;2023-07-29T14:44:43;5.10;;;1.60;;
27013;SDS011;14556;52.222;4.510;2023-07-29T14:47:09;2.63;;;1.37;;
27013;SDS011;14556;52.222;4.510;2023-07-29T14:49:38;2.13;;;1.13;;
27013;SDS011;14556;52.222;4.510;2023-07-29T14:52:05;2.87;;;1.17;;
27013;SDS011;14556;52.222;4.510;2023-07-29T14:54:32;4.63;;;1.30;;
27013;SDS011;14556;52.222;4.510;2023-07-29T14:56:59;2.30;;;1.40;;
27013;SDS011;14556;52.222;4.510;2023-07-29T14:59:26;4.90;;;1.40;;
27013;SDS011;14556;52.222;4.510;2023-07-29T15:01:53;5.43;;;1.70;;
27013;SDS011;14556;52.222;4.510;2023-07-29T15:04:19;4.10;;;1.30;;
27013;SDS011;14556;52.222;4.510;2023-07-29T15:06:46;2.97;;;1.50;;
27013;SDS011;14556;52.222;4.510;2023-07-29T15:09:13;5.43;;;1.60;;
27013;SDS011;14556;52.222;4.510;2023-07-29T15:11:42;2.37;;;1.20;;
27013;SDS011;14556;52.222;4.510;2023-07-29T15:14:11;1.97;;;1.30;;
27013;SDS011;14556;52.222;4.510;2023-07-29T15:16:38;3.13;;;1.60;;